sensor_id;sensor_type;location;lat;lon;timestamp;P1;durP1;ratioP1;P2;durP2;ratioP2
50549;SDS011;36505;52.512;13.460;2023-06-10T00:01:29;12.95;;;3.90;;
50549;SDS011;36505;52.512;13.460;2023-06-10T00:03:55;10.73;;;4.47;;
50549;SDS011;36505;52.512;13.460;2023-06-10T00:06:20;9.95;;;4.50;;
50549;SDS011;36505;52.512;13.460;2023-06-10T00:08:49;14.75;;;3.80;;
50549;SDS011;36505;52.512;13.460;2023-06-10T00:11:15;13.05;;;4.40;;
50549;SDS011;36505;52.512;13.460;2023-06-10T00:13:40;11.90;;;3.80;;
50549;SDS011;36505;52.512;13.460;2023-06-10T00:16:05;11.15;;;3.58;;
50549;SDS011;36505;52.512;13.460;2023-06-10T00:18:31;9.68;;;3.80;;
50549;SDS011;36505;52.512;13.460;2023-06-10T00:20:57;11.00;;;4.85;;
50549;SDS011;36505;52.512;13.460;2023-06-10T00:23:28;10.80;;;4.43;;
50549;SDS011;36505;52.512;13.460;2023-06-10T00:25:55;10.85;;;4.00;;
50549;SDS011;36505;52.512;13.460;2023-06-10T00:28:24;14.00;;;4.40;;
50549;SDS011;36505;52.512;13.460;2023-06-10T00:30:50;8.15;;;3.90;;
50549;SDS011;36505;52.512;13.460;2023-06-10T00:33:15;8.38;;;4.68;;
50549;SDS011;36505;52.512;13.460;2023-06-10T00:35:41;11.98;;;5.00;;
50549;SDS011;36505;52.512;13.460;2023-06-10T00:38:06;11.75;;;3.55;;
50549;SDS011;36505;52.512;13.460;2023-06-10T00:40:33;14.68;;;3.65;;
50549;SDS011;36505;52.512;13.460;2023-06-10T00:43:03;15.77;;;4.43;;
50549;SDS011;36505;52.512;13.460;2023-06-10T00:45:29;14.43;;;4.32;;
50549;SDS011;36505;52.512;13.460;2023-06-10T00:47:55;11.30;;;4.43;;
50549;SDS011;36505;52.512;13.460;2023-06-10T00:50:20;12.82;;;4.60;;
50549;SDS011;36505;52.512;13.460;2023-06-10T00:52:46;11.07;;;3.88;;
50549;SDS011;36505;52.512;13.460;2023-06-10T00:55:13;12.88;;;4.28;;
50549;SDS011;36505;52.512;13.460;2023-06-10T00:57:41;15.73;;;5.90;;
50549;SDS011;36505;52.512;13.460;2023-06-10T01:00:09;10.50;;;4.00;;
50549;SDS011;36505;52.512;13.460;2023-06-10T01:02:35;8.52;;;4.10;;
50549;SDS011;36505;52.512;13.460;2023-06-10T01:05:01;10.93;;;3.88;;
50549;SDS011;36505;52.512;13.460;2023-06-10T01:10:24;16.77;;;4.80;;
50549;SDS011;36505;52.512;13.460;2023-06-10T01:15:33;9.93;;;4.43;;
50549;SDS011;36505;52.512;13.460;2023-06-10T01:18:04;9.27;;;4.45;;
50549;SDS011;36505;52.512;13.460;2023-06-10T01:20:33;13.10;;;4.22;;
50549;SDS011;36505;52.512;13.460;2023-06-10T01:23:00;12.18;;;3.55;;
50549;SDS011;36505;52.512;13.460;2023-06-10T01:25:26;13.88;;;4.00;;
50549;SDS011;36505;52.512;13.460;2023-06-10T01:27:54;16.10;;;4.10;;
50549;SDS011;36505;52.512;13.460;2023-06-10T01:30:33;9.82;;;4.22;;
50549;SDS011;36505;52.512;13.460;2023-06-10T01:33:06;12.52;;;4.65;;
50549;SDS011;36505;52.512;13.460;2023-06-10T01:35:36;9.98;;;4.00;;
50549;SDS011;36505;52.512;13.460;2023-06-10T01:38:03;12.23;;;4.68;;
50549;SDS011;36505;52.512;13.460;2023-06-10T01:40:29;8.02;;;4.30;;
50549;SDS011;36505;52.512;13.460;2023-06-10T01:42:55;12.88;;;4.15;;
50549;SDS011;36505;52.512;13.460;2023-06-10T01:45:21;11.50;;;3.92;;
50549;SDS011;36505;52.512;13.460;2023-06-10T01:47:46;13.65;;;4.00;;
50549;SDS011;36505;52.512;13.460;2023-06-10T01:50:11;12.35;;;4.13;;
50549;SDS011;36505;52.512;13.460;2023-06-10T01:52:37;14.48;;;4.60;;
50549;SDS011;36505;52.512;13.460;2023-06-10T01:55:02;15.18;;;4.38;;
50549;SDS011;36505;52.512;13.460;2023-06-10T01:57:28;18.50;;;4.75;;
50549;SDS011;36505;52.512;13.460;2023-06-10T01:59:53;10.73;;;4.20;;
50549;SDS011;36505;52.512;13.460;2023-06-10T02:02:19;6.72;;;3.53;;
50549;SDS011;36505;52.512;13.460;2023-06-10T02:04:46;10.18;;;3.55;;
50549;SDS011;36505;52.512;13.460;2023-06-10T02:07:12;10.90;;;3.80;;
50549;SDS011;36505;52.512;13.460;2023-06-10T02:09:37;11.35;;;3.80;;
50549;SDS011;36505;52.512;13.460;2023-06-10T02:12:03;11.70;;;4.40;;
50549;SDS011;36505;52.512;13.460;2023-06-10T02:14:29;10.20;;;4.32;;
50549;SDS011;36505;52.512;13.460;2023-06-10T02:16:56;12.20;;;4.40;;
50549;SDS011;36505;52.512;13.460;2023-06-10T02:19:22;12.90;;;4.38;;
50549;SDS011;36505;52.512;13.460;2023-06-10T02:21:48;17.85;;;4.03;;
50549;SDS011;36505;52.512;13.460;2023-06-10T02:24:14;12.38;;;4.15;;
50549;SDS011;36505;52.512;13.460;2023-06-10T02:26:39;11.23;;;3.78;;
50549;SDS011;36505;52.512;13.460;2023-06-10T02:29:05;15.20;;;4.53;;
50549;SDS011;36505;52.512;13.460;2023-06-10T02:31:31;15.05;;;4.15;;
50549;SDS011;36505;52.512;13.460;2023-06-10T02:33:56;18.10;;;4.32;;
50549;SDS011;36505;52.512;13.460;2023-06-10T02:36:22;9.13;;;4.28;;
50549;SDS011;36505;52.512;13.460;2023-06-10T02:38:49;15.88;;;4.70;;
50549;SDS011;36505;52.512;13.460;2023-06-10T02:41:14;14.30;;;4.75;;
50549;SDS011;36505;52.512;13.460;2023-06-10T02:43:40;8.10;;;3.78;;
50549;SDS011;36505;52.512;13.460;2023-06-10T02:46:05;13.20;;;5.97;;
50549;SDS011;36505;52.512;13.460;2023-06-10T02:48:40;12.20;;;4.28;;
50549;SDS011;36505;52.512;13.460;2023-06-10T02:51:06;18.80;;;4.45;;
50549;SDS011;36505;52.512;13.460;2023-06-10T02:53:32;14.82;;;4.20;;
50549;SDS011;36505;52.512;13.460;2023-06-10T02:55:57;14.82;;;4.78;;
50549;SDS011;36505;52.512;13.460;2023-06-10T02:58:22;11.38;;;4.20;;
50549;SDS011;36505;52.512;13.460;2023-06-10T03:00:48;14.00;;;4.40;;
50549;SDS011;36505;52.512;13.460;2023-06-10T03:03:13;13.50;;;5.22;;
50549;SDS011;36505;52.512;13.460;2023-06-10T03:05:39;11.52;;;4.05;;
50549;SDS011;36505;52.512;13.460;2023-06-10T03:08:05;13.50;;;4.35;;
50549;SDS011;36505;52.512;13.460;2023-06-10T03:10:30;11.13;;;4.70;;
50549;SDS011;36505;52.512;13.460;2023-06-10T03:12:57;12.35;;;4.10;;
50549;SDS011;36505;52.512;13.460;2023-06-10T03:15:23;11.38;;;4.30;;
50549;SDS011;36505;52.512;13.460;2023-06-10T03:17:49;12.93;;;4.40;;
50549;SDS011;36505;52.512;13.460;2023-06-10T03:20:15;8.27;;;4.00;;
50549;SDS011;36505;52.512;13.460;2023-06-10T03:22:41;13.30;;;4.80;;
50549;SDS011;36505;52.512;13.460;2023-06-10T03:25:07;12.13;;;4.90;;
50549;SDS011;36505;52.512;13.460;2023-06-10T03:27:38;13.88;;;4.32;;
50549;SDS011;36505;52.512;13.460;2023-06-10T03:30:04;11.25;;;4.13;;
50549;SDS011;36505;52.512;13.460;2023-06-10T03:32:30;10.82;;;4.25;;
50549;SDS011;36505;52.512;13.460;2023-06-10T03:34:55;8.00;;;4.20;;
50549;SDS011;36505;52.512;13.460;2023-06-10T03:37:23;14.57;;;4.80;;
50549;SDS011;36505;52.512;13.460;2023-06-10T03:39:51;14.25;;;4.80;;
50549;SDS011;36505;52.512;13.460;2023-06-10T03:42:16;13.27;;;4.57;;
50549;SDS011;36505;52.512;13.460;2023-06-10T03:44:42;10.23;;;5.13;;
50549;SDS011;36505;52.512;13.460;2023-06-10T03:47:07;10.27;;;4.55;;
50549;SDS011;36505;52.512;13.460;2023-06-10T03:49:33;9.07;;;4.68;;
50549;SDS011;36505;52.512;13.460;2023-06-10T03:51:58;13.02;;;5.38;;
50549;SDS011;36505;52.512;13.460;2023-06-10T03:54:24;13.73;;;5.15;;
50549;SDS011;36505;52.512;13.460;2023-06-10T03:56:49;12.93;;;4.80;;
50549;SDS011;36505;52.512;13.460;2023-06-10T03:59:15;10.07;;;4.53;;
50549;SDS011;36505;52.512;13.460;2023-06-10T04:01:40;10.77;;;4.97;;
50549;SDS011;36505;52.512;13.460;2023-06-10T04:04:06;9.27;;;4.45;;
50549;SDS011;36505;52.512;13.460;2023-06-10T04:06:32;8.52;;;4.25;;
50549;SDS011;36505;52.512;13.460;2023-06-10T04:08:57;13.15;;;4.85;;
50549;SDS011;36505;52.512;13.460;2023-06-10T04:11:23;21.40;;;6.78;;
50549;SDS011;36505;52.512;13.460;2023-06-10T04:13:49;16.30;;;6.30;;
50549;SDS011;36505;52.512;13.460;2023-06-10T04:16:16;12.10;;;4.47;;
50549;SDS011;36505;52.512;13.460;2023-06-10T04:18:41;12.55;;;4.68;;
50549;SDS011;36505;52.512;13.460;2023-06-10T04:21:07;10.23;;;5.15;;
50549;SDS011;36505;52.512;13.460;2023-06-10T04:23:33;13.50;;;5.15;;
50549;SDS011;36505;52.512;13.460;2023-06-10T04:26:00;13.30;;;5.15;;
50549;SDS011;36505;52.512;13.460;2023-06-10T04:28:25;12.25;;;5.32;;
50549;SDS011;36505;52.512;13.460;2023-06-10T04:30:51;13.40;;;5.93;;
50549;SDS011;36505;52.512;13.460;2023-06-10T04:33:16;10.73;;;4.95;;
50549;SDS011;36505;52.512;13.460;2023-06-10T04:35:42;13.00;;;5.65;;
50549;SDS011;36505;52.512;13.460;2023-06-10T04:38:07;16.60;;;5.05;;
50549;SDS011;36505;52.512;13.460;2023-06-10T04:40:33;12.88;;;5.00;;
50549;SDS011;36505;52.512;13.460;2023-06-10T04:42:58;14.63;;;5.30;;
50549;SDS011;36505;52.512;13.460;2023-06-10T04:45:23;17.00;;;6.30;;
50549;SDS011;36505;52.512;13.460;2023-06-10T04:47:49;16.50;;;6.03;;
50549;SDS011;36505;52.512;13.460;2023-06-10T04:50:14;13.57;;;5.43;;
50549;SDS011;36505;52.512;13.460;2023-06-10T04:52:40;12.00;;;5.13;;
50549;SDS011;36505;52.512;13.460;2023-06-10T04:55:06;14.23;;;4.95;;
50549;SDS011;36505;52.512;13.460;2023-06-10T04:57:32;16.00;;;5.20;;
50549;SDS011;36505;52.512;13.460;2023-06-10T04:59:57;10.55;;;4.80;;
50549;SDS011;36505;52.512;13.460;2023-06-10T05:02:23;16.00;;;5.10;;
50549;SDS011;36505;52.512;13.460;2023-06-10T05:04:48;16.92;;;5.63;;
50549;SDS011;36505;52.512;13.460;2023-06-10T05:07:14;11.63;;;5.07;;
50549;SDS011;36505;52.512;13.460;2023-06-10T05:09:39;8.95;;;4.65;;
50549;SDS011;36505;52.512;13.460;2023-06-10T05:12:04;12.55;;;4.60;;
50549;SDS011;36505;52.512;13.460;2023-06-10T05:14:31;14.27;;;5.65;;
50549;SDS011;36505;52.512;13.460;2023-06-10T05:16:56;11.77;;;5.55;;
50549;SDS011;36505;52.512;13.460;2023-06-10T05:19:22;8.77;;;4.90;;
50549;SDS011;36505;52.512;13.460;2023-06-10T05:21:47;10.07;;;5.10;;
50549;SDS011;36505;52.512;13.460;2023-06-10T05:24:13;14.38;;;5.65;;
50549;SDS011;36505;52.512;13.460;2023-06-10T05:26:38;12.25;;;4.85;;
50549;SDS011;36505;52.512;13.460;2023-06-10T05:29:04;14.57;;;5.22;;
50549;SDS011;36505;52.512;13.460;2023-06-10T05:31:30;11.75;;;5.07;;
50549;SDS011;36505;52.512;13.460;2023-06-10T05:33:56;15.88;;;5.30;;
50549;SDS011;36505;52.512;13.460;2023-06-10T05:36:21;12.93;;;6.00;;
50549;SDS011;36505;52.512;13.460;2023-06-10T05:38:46;10.85;;;4.72;;
50549;SDS011;36505;52.512;13.460;2023-06-10T05:41:12;12.93;;;5.00;;
50549;SDS011;36505;52.512;13.460;2023-06-10T05:43:38;9.43;;;4.88;;
50549;SDS011;36505;52.512;13.460;2023-06-10T05:46:03;16.33;;;5.68;;
50549;SDS011;36505;52.512;13.460;2023-06-10T05:48:28;13.02;;;5.43;;
50549;SDS011;36505;52.512;13.460;2023-06-10T05:50:54;12.98;;;5.28;;
50549;SDS011;36505;52.512;13.460;2023-06-10T05:53:19;11.90;;;5.20;;
50549;SDS011;36505;52.512;13.460;2023-06-10T05:55:45;10.77;;;5.60;;
50549;SDS011;36505;52.512;13.460;2023-06-10T05:58:11;10.48;;;5.30;;
50549;SDS011;36505;52.512;13.460;2023-06-10T06:00:41;11.35;;;4.95;;
50549;SDS011;36505;52.512;13.460;2023-06-10T06:03:09;10.88;;;4.70;;
50549;SDS011;36505;52.512;13.460;2023-06-10T06:05:35;10.07;;;4.88;;
50549;SDS011;36505;52.512;13.460;2023-06-10T06:08:04;12.93;;;5.22;;
50549;SDS011;36505;52.512;13.460;2023-06-10T06:10:30;13.05;;;5.55;;
50549;SDS011;36505;52.512;13.460;2023-06-10T06:12:59;15.50;;;5.78;;
50549;SDS011;36505;52.512;13.460;2023-06-10T06:15:25;7.80;;;4.93;;
50549;SDS011;36505;52.512;13.460;2023-06-10T06:17:51;13.82;;;5.93;;
50549;SDS011;36505;52.512;13.460;2023-06-10T06:20:20;10.73;;;5.45;;
50549;SDS011;36505;52.512;13.460;2023-06-10T06:22:46;12.23;;;5.22;;
50549;SDS011;36505;52.512;13.460;2023-06-10T06:25:12;10.60;;;5.53;;
50549;SDS011;36505;52.512;13.460;2023-06-10T06:27:37;9.85;;;5.47;;
50549;SDS011;36505;52.512;13.460;2023-06-10T06:30:02;13.13;;;5.03;;
50549;SDS011;36505;52.512;13.460;2023-06-10T06:32:28;9.48;;;5.13;;
50549;SDS011;36505;52.512;13.460;2023-06-10T06:34:54;12.00;;;5.20;;
50549;SDS011;36505;52.512;13.460;2023-06-10T06:37:22;12.60;;;6.00;;
50549;SDS011;36505;52.512;13.460;2023-06-10T06:39:52;10.05;;;5.30;;
50549;SDS011;36505;52.512;13.460;2023-06-10T06:42:18;14.82;;;5.38;;
50549;SDS011;36505;52.512;13.460;2023-06-10T06:44:44;15.73;;;5.65;;
50549;SDS011;36505;52.512;13.460;2023-06-10T06:47:10;16.33;;;8.70;;
50549;SDS011;36505;52.512;13.460;2023-06-10T06:49:35;8.98;;;5.35;;
50549;SDS011;36505;52.512;13.460;2023-06-10T06:52:01;15.15;;;6.32;;
50549;SDS011;36505;52.512;13.460;2023-06-10T06:54:27;13.68;;;5.72;;
50549;SDS011;36505;52.512;13.460;2023-06-10T06:56:52;12.60;;;5.50;;
50549;SDS011;36505;52.512;13.460;2023-06-10T06:59:18;13.60;;;5.35;;
50549;SDS011;36505;52.512;13.460;2023-06-10T07:01:44;10.75;;;5.38;;
50549;SDS011;36505;52.512;13.460;2023-06-10T07:04:10;12.82;;;4.72;;
50549;SDS011;36505;52.512;13.460;2023-06-10T07:06:36;9.80;;;5.10;;
50549;SDS011;36505;52.512;13.460;2023-06-10T07:09:01;9.20;;;4.95;;
50549;SDS011;36505;52.512;13.460;2023-06-10T07:11:26;16.15;;;5.32;;
50549;SDS011;36505;52.512;13.460;2023-06-10T07:13:52;9.30;;;4.80;;
50549;SDS011;36505;52.512;13.460;2023-06-10T07:16:17;11.18;;;5.35;;
50549;SDS011;36505;52.512;13.460;2023-06-10T07:18:45;11.95;;;5.40;;
50549;SDS011;36505;52.512;13.460;2023-06-10T07:21:11;11.70;;;5.72;;
50549;SDS011;36505;52.512;13.460;2023-06-10T07:23:36;10.73;;;5.70;;
50549;SDS011;36505;52.512;13.460;2023-06-10T07:26:01;13.20;;;5.20;;
50549;SDS011;36505;52.512;13.460;2023-06-10T07:28:27;9.23;;;5.30;;
50549;SDS011;36505;52.512;13.460;2023-06-10T07:30:52;8.85;;;5.13;;
50549;SDS011;36505;52.512;13.460;2023-06-10T07:33:17;12.25;;;6.38;;
50549;SDS011;36505;52.512;13.460;2023-06-10T07:35:43;7.60;;;4.97;;
50549;SDS011;36505;52.512;13.460;2023-06-10T07:38:08;14.90;;;5.60;;
50549;SDS011;36505;52.512;13.460;2023-06-10T07:40:34;11.18;;;5.10;;
50549;SDS011;36505;52.512;13.460;2023-06-10T07:42:59;16.73;;;6.30;;
50549;SDS011;36505;52.512;13.460;2023-06-10T07:45:25;9.68;;;5.25;;
50549;SDS011;36505;52.512;13.460;2023-06-10T07:47:50;18.73;;;7.53;;
50549;SDS011;36505;52.512;13.460;2023-06-10T07:50:16;18.45;;;7.10;;
50549;SDS011;36505;52.512;13.460;2023-06-10T07:52:41;9.82;;;4.90;;
50549;SDS011;36505;52.512;13.460;2023-06-10T07:55:06;8.40;;;4.47;;
50549;SDS011;36505;52.512;13.460;2023-06-10T07:57:32;10.02;;;4.65;;
50549;SDS011;36505;52.512;13.460;2023-06-10T08:00:01;15.02;;;5.82;;
50549;SDS011;36505;52.512;13.460;2023-06-10T08:02:29;9.27;;;5.10;;
50549;SDS011;36505;52.512;13.460;2023-06-10T08:04:54;8.32;;;5.80;;
50549;SDS011;36505;52.512;13.460;2023-06-10T08:07:20;8.15;;;4.97;;
50549;SDS011;36505;52.512;13.460;2023-06-10T08:09:45;12.05;;;5.57;;
50549;SDS011;36505;52.512;13.460;2023-06-10T08:12:11;11.07;;;5.85;;
50549;SDS011;36505;52.512;13.460;2023-06-10T08:14:36;12.38;;;5.35;;
50549;SDS011;36505;52.512;13.460;2023-06-10T08:17:02;10.88;;;5.60;;
50549;SDS011;36505;52.512;13.460;2023-06-10T08:19:30;12.40;;;5.45;;
50549;SDS011;36505;52.512;13.460;2023-06-10T08:21:55;8.50;;;4.85;;
50549;SDS011;36505;52.512;13.460;2023-06-10T08:24:21;17.38;;;5.80;;
50549;SDS011;36505;52.512;13.460;2023-06-10T08:26:46;9.38;;;5.38;;
50549;SDS011;36505;52.512;13.460;2023-06-10T08:29:12;12.98;;;5.53;;
50549;SDS011;36505;52.512;13.460;2023-06-10T08:31:40;15.15;;;5.07;;
50549;SDS011;36505;52.512;13.460;2023-06-10T08:34:07;9.45;;;5.63;;
50549;SDS011;36505;52.512;13.460;2023-06-10T08:36:32;13.68;;;6.05;;
50549;SDS011;36505;52.512;13.460;2023-06-10T08:38:57;16.80;;;5.60;;
50549;SDS011;36505;52.512;13.460;2023-06-10T08:41:23;10.73;;;5.65;;
50549;SDS011;36505;52.512;13.460;2023-06-10T08:43:59;11.25;;;6.18;;
50549;SDS011;36505;52.512;13.460;2023-06-10T08:46:37;11.63;;;5.22;;
50549;SDS011;36505;52.512;13.460;2023-06-10T08:49:07;13.07;;;5.22;;
50549;SDS011;36505;52.512;13.460;2023-06-10T08:51:32;17.50;;;5.88;;
50549;SDS011;36505;52.512;13.460;2023-06-10T08:54:02;10.02;;;4.97;;
50549;SDS011;36505;52.512;13.460;2023-06-10T08:56:37;8.82;;;5.45;;
50549;SDS011;36505;52.512;13.460;2023-06-10T08:59:05;14.50;;;4.80;;
50549;SDS011;36505;52.512;13.460;2023-06-10T09:01:30;9.13;;;5.28;;
50549;SDS011;36505;52.512;13.460;2023-06-10T09:03:56;9.32;;;5.07;;
50549;SDS011;36505;52.512;13.460;2023-06-10T09:06:24;13.40;;;5.60;;
50549;SDS011;36505;52.512;13.460;2023-06-10T09:08:50;10.45;;;5.47;;
50549;SDS011;36505;52.512;13.460;2023-06-10T09:11:16;11.10;;;5.53;;
50549;SDS011;36505;52.512;13.460;2023-06-10T09:13:41;14.40;;;5.53;;
50549;SDS011;36505;52.512;13.460;2023-06-10T09:16:07;13.68;;;7.50;;
50549;SDS011;36505;52.512;13.460;2023-06-10T09:18:32;10.50;;;6.53;;
50549;SDS011;36505;52.512;13.460;2023-06-10T09:20:59;18.70;;;7.22;;
50549;SDS011;36505;52.512;13.460;2023-06-10T09:23:25;8.82;;;5.25;;
50549;SDS011;36505;52.512;13.460;2023-06-10T09:25:57;8.48;;;4.82;;
50549;SDS011;36505;52.512;13.460;2023-06-10T09:30:48;9.43;;;5.30;;
50549;SDS011;36505;52.512;13.460;2023-06-10T09:33:14;16.08;;;5.93;;
50549;SDS011;36505;52.512;13.460;2023-06-10T09:35:47;12.30;;;4.55;;
50549;SDS011;36505;52.512;13.460;2023-06-10T09:38:14;11.93;;;5.10;;
50549;SDS011;36505;52.512;13.460;2023-06-10T09:40:49;14.57;;;4.63;;
50549;SDS011;36505;52.512;13.460;2023-06-10T09:43:16;8.50;;;5.35;;
50549;SDS011;36505;52.512;13.460;2023-06-10T09:45:41;10.27;;;4.80;;
50549;SDS011;36505;52.512;13.460;2023-06-10T09:48:08;10.82;;;5.50;;
50549;SDS011;36505;52.512;13.460;2023-06-10T09:50:33;12.93;;;5.32;;
50549;SDS011;36505;52.512;13.460;2023-06-10T09:52:59;14.80;;;6.13;;
50549;SDS011;36505;52.512;13.460;2023-06-10T09:55:27;9.63;;;5.70;;
50549;SDS011;36505;52.512;13.460;2023-06-10T09:57:53;10.07;;;5.43;;
50549;SDS011;36505;52.512;13.460;2023-06-10T10:00:19;10.73;;;6.03;;
50549;SDS011;36505;52.512;13.460;2023-06-10T10:02:48;10.20;;;5.35;;
50549;SDS011;36505;52.512;13.460;2023-06-10T10:05:15;13.30;;;5.13;;
50549;SDS011;36505;52.512;13.460;2023-06-10T10:07:42;12.80;;;5.72;;
50549;SDS011;36505;52.512;13.460;2023-06-10T10:10:09;11.25;;;5.95;;
50549;SDS011;36505;52.512;13.460;2023-06-10T10:12:35;16.02;;;5.57;;
50549;SDS011;36505;52.512;13.460;2023-06-10T10:15:02;13.15;;;5.88;;
50549;SDS011;36505;52.512;13.460;2023-06-10T10:17:30;9.40;;;5.63;;
50549;SDS011;36505;52.512;13.460;2023-06-10T10:20:00;9.80;;;5.60;;
50549;SDS011;36505;52.512;13.460;2023-06-10T10:22:38;7.45;;;4.82;;
50549;SDS011;36505;52.512;13.460;2023-06-10T10:25:08;7.57;;;4.25;;
50549;SDS011;36505;52.512;13.460;2023-06-10T10:30:05;7.53;;;4.65;;
50549;SDS011;36505;52.512;13.460;2023-06-10T10:32:35;10.15;;;5.10;;
50549;SDS011;36505;52.512;13.460;2023-06-10T10:35:08;7.25;;;4.32;;
50549;SDS011;36505;52.512;13.460;2023-06-10T10:37:37;8.20;;;4.53;;
50549;SDS011;36505;52.512;13.460;2023-06-10T10:40:04;5.75;;;3.58;;
50549;SDS011;36505;52.512;13.460;2023-06-10T10:42:32;7.00;;;3.85;;
50549;SDS011;36505;52.512;13.460;2023-06-10T10:44:59;7.88;;;4.05;;
50549;SDS011;36505;52.512;13.460;2023-06-10T10:47:25;15.18;;;4.07;;
50549;SDS011;36505;52.512;13.460;2023-06-10T10:49:54;5.18;;;3.50;;
50549;SDS011;36505;52.512;13.460;2023-06-10T10:52:20;8.35;;;6.15;;
50549;SDS011;36505;52.512;13.460;2023-06-10T10:54:46;8.07;;;3.90;;
50549;SDS011;36505;52.512;13.460;2023-06-10T10:57:15;6.88;;;3.47;;
50549;SDS011;36505;52.512;13.460;2023-06-10T11:02:45;10.73;;;5.22;;
50549;SDS011;36505;52.512;13.460;2023-06-10T11:05:14;4.55;;;3.15;;
50549;SDS011;36505;52.512;13.460;2023-06-10T11:07:40;5.43;;;3.50;;
50549;SDS011;36505;52.512;13.460;2023-06-10T11:10:17;4.07;;;3.03;;
50549;SDS011;36505;52.512;13.460;2023-06-10T11:15:13;7.35;;;3.38;;
50549;SDS011;36505;52.512;13.460;2023-06-10T11:18:06;7.25;;;4.63;;
50549;SDS011;36505;52.512;13.460;2023-06-10T11:31:26;9.32;;;3.70;;
50549;SDS011;36505;52.512;13.460;2023-06-10T11:33:56;5.25;;;3.50;;
50549;SDS011;36505;52.512;13.460;2023-06-10T11:36:23;7.65;;;3.90;;
50549;SDS011;36505;52.512;13.460;2023-06-10T11:38:50;6.70;;;3.08;;
50549;SDS011;36505;52.512;13.460;2023-06-10T11:41:21;7.80;;;3.83;;
50549;SDS011;36505;52.512;13.460;2023-06-10T11:43:48;6.00;;;3.38;;
50549;SDS011;36505;52.512;13.460;2023-06-10T11:46:14;6.95;;;4.22;;
50549;SDS011;36505;52.512;13.460;2023-06-10T11:48:49;5.35;;;3.80;;
50549;SDS011;36505;52.512;13.460;2023-06-10T11:51:19;5.38;;;4.20;;
50549;SDS011;36505;52.512;13.460;2023-06-10T11:53:48;8.70;;;4.20;;
50549;SDS011;36505;52.512;13.460;2023-06-10T11:56:20;6.78;;;3.97;;
50549;SDS011;36505;52.512;13.460;2023-06-10T11:58:49;7.25;;;5.22;;
50549;SDS011;36505;52.512;13.460;2023-06-10T12:01:37;8.70;;;4.80;;
50549;SDS011;36505;52.512;13.460;2023-06-10T12:04:08;10.70;;;4.28;;
50549;SDS011;36505;52.512;13.460;2023-06-10T12:06:41;7.70;;;4.03;;
50549;SDS011;36505;52.512;13.460;2023-06-10T12:09:14;5.82;;;4.18;;
50549;SDS011;36505;52.512;13.460;2023-06-10T12:11:51;7.18;;;4.43;;
50549;SDS011;36505;52.512;13.460;2023-06-10T12:19:49;9.57;;;4.40;;
50549;SDS011;36505;52.512;13.460;2023-06-10T12:22:15;15.57;;;4.97;;
50549;SDS011;36505;52.512;13.460;2023-06-10T12:25:01;8.27;;;4.78;;
50549;SDS011;36505;52.512;13.460;2023-06-10T12:27:32;6.97;;;4.60;;
50549;SDS011;36505;52.512;13.460;2023-06-10T12:29:59;11.95;;;5.10;;
50549;SDS011;36505;52.512;13.460;2023-06-10T12:32:41;9.45;;;4.55;;
50549;SDS011;36505;52.512;13.460;2023-06-10T12:35:09;9.15;;;5.10;;
50549;SDS011;36505;52.512;13.460;2023-06-10T12:37:35;6.35;;;4.72;;
50549;SDS011;36505;52.512;13.460;2023-06-10T12:40:02;7.78;;;5.72;;
50549;SDS011;36505;52.512;13.460;2023-06-10T12:42:28;7.97;;;5.60;;
50549;SDS011;36505;52.512;13.460;2023-06-10T12:45:00;10.05;;;5.63;;
50549;SDS011;36505;52.512;13.460;2023-06-10T12:47:29;6.68;;;5.38;;
50549;SDS011;36505;52.512;13.460;2023-06-10T12:50:00;12.80;;;6.10;;
50549;SDS011;36505;52.512;13.460;2023-06-10T12:52:26;9.00;;;5.70;;
50549;SDS011;36505;52.512;13.460;2023-06-10T12:54:52;9.13;;;5.38;;
50549;SDS011;36505;52.512;13.460;2023-06-10T12:57:23;10.65;;;5.72;;
50549;SDS011;36505;52.512;13.460;2023-06-10T12:59:49;11.90;;;5.93;;
50549;SDS011;36505;52.512;13.460;2023-06-10T13:02:38;14.43;;;5.95;;
50549;SDS011;36505;52.512;13.460;2023-06-10T13:05:04;11.55;;;5.95;;
50549;SDS011;36505;52.512;13.460;2023-06-10T13:07:29;10.60;;;5.85;;
50549;SDS011;36505;52.512;13.460;2023-06-10T13:09:55;13.85;;;6.10;;
50549;SDS011;36505;52.512;13.460;2023-06-10T13:12:21;8.75;;;6.60;;
50549;SDS011;36505;52.512;13.460;2023-06-10T13:14:47;9.95;;;6.00;;
50549;SDS011;36505;52.512;13.460;2023-06-10T13:17:12;10.18;;;5.80;;
50549;SDS011;36505;52.512;13.460;2023-06-10T13:19:37;11.10;;;6.57;;
50549;SDS011;36505;52.512;13.460;2023-06-10T13:22:03;10.95;;;6.22;;
50549;SDS011;36505;52.512;13.460;2023-06-10T13:24:28;13.15;;;6.43;;
50549;SDS011;36505;52.512;13.460;2023-06-10T13:26:54;8.05;;;5.82;;
50549;SDS011;36505;52.512;13.460;2023-06-10T13:29:21;8.88;;;6.38;;
50549;SDS011;36505;52.512;13.460;2023-06-10T13:31:49;11.85;;;6.05;;
50549;SDS011;36505;52.512;13.460;2023-06-10T13:34:14;13.10;;;6.53;;
50549;SDS011;36505;52.512;13.460;2023-06-10T13:36:40;9.55;;;5.65;;
50549;SDS011;36505;52.512;13.460;2023-06-10T13:39:05;7.97;;;5.97;;
50549;SDS011;36505;52.512;13.460;2023-06-10T13:41:31;9.38;;;5.70;;
50549;SDS011;36505;52.512;13.460;2023-06-10T13:43:56;11.35;;;6.32;;
50549;SDS011;36505;52.512;13.460;2023-06-10T13:46:22;12.07;;;5.70;;
50549;SDS011;36505;52.512;13.460;2023-06-10T13:48:51;8.43;;;5.30;;
50549;SDS011;36505;52.512;13.460;2023-06-10T13:51:16;8.95;;;5.95;;
50549;SDS011;36505;52.512;13.460;2023-06-10T13:53:42;10.82;;;5.22;;
50549;SDS011;36505;52.512;13.460;2023-06-10T13:56:07;12.82;;;6.30;;
50549;SDS011;36505;52.512;13.460;2023-06-10T13:58:33;7.75;;;5.38;;
50549;SDS011;36505;52.512;13.460;2023-06-10T14:01:03;9.52;;;5.80;;
50549;SDS011;36505;52.512;13.460;2023-06-10T14:03:29;9.48;;;7.30;;
50549;SDS011;36505;52.512;13.460;2023-06-10T14:05:54;13.80;;;5.97;;
50549;SDS011;36505;52.512;13.460;2023-06-10T14:08:20;7.75;;;5.28;;
50549;SDS011;36505;52.512;13.460;2023-06-10T14:10:46;7.95;;;4.72;;
50549;SDS011;36505;52.512;13.460;2023-06-10T14:13:11;10.63;;;5.40;;
50549;SDS011;36505;52.512;13.460;2023-06-10T14:15:37;8.57;;;4.93;;
50549;SDS011;36505;52.512;13.460;2023-06-10T14:18:02;9.98;;;5.60;;
50549;SDS011;36505;52.512;13.460;2023-06-10T14:20:29;12.00;;;5.25;;
50549;SDS011;36505;52.512;13.460;2023-06-10T14:22:56;10.68;;;5.50;;
50549;SDS011;36505;52.512;13.460;2023-06-10T14:25:22;9.43;;;5.22;;
50549;SDS011;36505;52.512;13.460;2023-06-10T14:27:48;11.30;;;5.25;;
50549;SDS011;36505;52.512;13.460;2023-06-10T14:30:13;5.78;;;4.60;;
50549;SDS011;36505;52.512;13.460;2023-06-10T14:32:40;6.90;;;5.00;;
50549;SDS011;36505;52.512;13.460;2023-06-10T14:35:05;10.23;;;5.18;;
50549;SDS011;36505;52.512;13.460;2023-06-10T14:37:31;13.63;;;4.75;;
50549;SDS011;36505;52.512;13.460;2023-06-10T14:39:56;7.55;;;4.55;;
50549;SDS011;36505;52.512;13.460;2023-06-10T14:42:21;6.88;;;4.95;;
50549;SDS011;36505;52.512;13.460;2023-06-10T14:44:47;10.25;;;4.57;;
50549;SDS011;36505;52.512;13.460;2023-06-10T14:47:12;8.15;;;4.90;;
50549;SDS011;36505;52.512;13.460;2023-06-10T14:49:38;7.45;;;4.68;;
50549;SDS011;36505;52.512;13.460;2023-06-10T14:52:03;5.80;;;4.35;;
50549;SDS011;36505;52.512;13.460;2023-06-10T14:54:29;9.30;;;5.20;;
50549;SDS011;36505;52.512;13.460;2023-06-10T14:56:55;8.57;;;4.72;;